sensor_id;sensor_type;location;lat;lon;timestamp;temperature;humidity
17986;DHT22;9118;48.122;11.546;2022-10-15T00:00:53;13.10;99.90
17986;DHT22;9118;48.122;11.546;2022-10-15T00:03:20;13.10;99.90
17986;DHT22;9118;48.122;11.546;2022-10-15T00:05:46;13.10;99.90
17986;DHT22;9118;48.122;11.546;2022-10-15T00:08:13;13.10;99.90
17986;DHT22;9118;48.122;11.546;2022-10-15T00:10:40;13.00;99.90
17986;DHT22;9118;48.122;11.546;2022-10-15T00:13:08;13.00;99.90
17986;DHT22;9118;48.122;11.546;2022-10-15T00:15:36;13.10;99.90
17986;DHT22;9118;48.122;11.546;2022-10-15T00:18:03;12.90;99.90
17986;DHT22;9118;48.122;11.546;2022-10-15T00:20:30;13.00;99.90
17986;DHT22;9118;48.122;11.546;2022-10-15T00:22:59;12.90;99.90
17986;DHT22;9118;48.122;11.546;2022-10-15T00:25:25;13.10;99.90
17986;DHT22;9118;48.122;11.546;2022-10-15T00:27:52;13.00;99.90
17986;DHT22;9118;48.122;11.546;2022-10-15T00:30:19;13.00;99.90
17986;DHT22;9118;48.122;11.546;2022-10-15T00:32:48;13.00;99.90
17986;DHT22;9118;48.122;11.546;2022-10-15T00:35:15;12.40;99.90
17986;DHT22;9118;48.122;11.546;2022-10-15T00:37:42;12.90;99.90
17986;DHT22;9118;48.122;11.546;2022-10-15T00:40:11;13.20;99.90
17986;DHT22;9118;48.122;11.546;2022-10-15T00:42:39;12.90;99.90
17986;DHT22;9118;48.122;11.546;2022-10-15T00:45:11;12.90;99.90
17986;DHT22;9118;48.122;11.546;2022-10-15T00:47:40;12.80;99.90
17986;DHT22;9118;48.122;11.546;2022-10-15T00:50:12;12.80;99.90
17986;DHT22;9118;48.122;11.546;2022-10-15T00:52:45;12.90;99.90
17986;DHT22;9118;48.122;11.546;2022-10-15T00:55:15;12.90;99.90
17986;DHT22;9118;48.122;11.546;2022-10-15T00:57:44;13.00;99.90
17986;DHT22;9118;48.122;11.546;2022-10-15T01:00:14;12.90;99.90
17986;DHT22;9118;48.122;11.546;2022-10-15T01:02:42;13.00;99.90
17986;DHT22;9118;48.122;11.546;2022-10-15T01:05:11;12.70;99.90
17986;DHT22;9118;48.122;11.546;2022-10-15T01:07:39;12.90;99.90
17986;DHT22;9118;48.122;11.546;2022-10-15T01:10:07;12.60;99.90
17986;DHT22;9118;48.122;11.546;2022-10-15T01:12:44;13.00;99.90
17986;DHT22;9118;48.122;11.546;2022-10-15T01:15:20;12.80;99.90
17986;DHT22;9118;48.122;11.546;2022-10-15T01:17:52;13.00;99.90
17986;DHT22;9118;48.122;11.546;2022-10-15T01:20:57;12.90;99.90
17986;DHT22;9118;48.122;11.546;2022-10-15T01:30:04;12.90;99.90
17986;DHT22;9118;48.122;11.546;2022-10-15T01:32:38;12.80;99.90
17986;DHT22;9118;48.122;11.546;2022-10-15T01:35:17;13.10;99.90
17986;DHT22;9118;48.122;11.546;2022-10-15T01:37:52;13.00;99.90
17986;DHT22;9118;48.122;11.546;2022-10-15T01:40:25;12.90;99.90
17986;DHT22;9118;48.122;11.546;2022-10-15T01:42:56;12.80;99.90
17986;DHT22;9118;48.122;11.546;2022-10-15T01:45:29;12.80;99.90
17986;DHT22;9118;48.122;11.546;2022-10-15T01:48:03;12.90;99.90
17986;DHT22;9118;48.122;11.546;2022-10-15T01:50:33;12.80;99.90
17986;DHT22;9118;48.122;11.546;2022-10-15T01:53:02;12.80;99.90
17986;DHT22;9118;48.122;11.546;2022-10-15T01:55:32;12.70;99.90
17986;DHT22;9118;48.122;11.546;2022-10-15T01:58:01;12.80;99.90
17986;DHT22;9118;48.122;11.546;2022-10-15T02:00:29;12.90;99.90
17986;DHT22;9118;48.122;11.546;2022-10-15T02:03:00;12.80;99.90
17986;DHT22;9118;48.122;11.546;2022-10-15T02:05:31;12.70;99.90
17986;DHT22;9118;48.122;11.546;2022-10-15T02:08:04;12.80;99.90
17986;DHT22;9118;48.122;11.546;2022-10-15T02:10:42;12.80;99.90
17986;DHT22;9118;48.122;11.546;2022-10-15T02:13:21;12.80;99.90
17986;DHT22;9118;48.122;11.546;2022-10-15T02:15:58;13.10;99.90
17986;DHT22;9118;48.122;11.546;2022-10-15T02:18:35;12.80;99.90
17986;DHT22;9118;48.122;11.546;2022-10-15T02:21:07;13.00;99.90
17986;DHT22;9118;48.122;11.546;2022-10-15T02:23:42;12.80;99.90
17986;DHT22;9118;48.122;11.546;2022-10-15T02:26:12;12.80;99.90
17986;DHT22;9118;48.122;11.546;2022-10-15T02:28:44;12.70;99.90
17986;DHT22;9118;48.122;11.546;2022-10-15T02:31:13;12.70;99.90
17986;DHT22;9118;48.122;11.546;2022-10-15T02:33:43;12.70;99.90
17986;DHT22;9118;48.122;11.546;2022-10-15T02:36:11;12.80;99.90
17986;DHT22;9118;48.122;11.546;2022-10-15T02:38:39;12.70;99.90
17986;DHT22;9118;48.122;11.546;2022-10-15T02:41:08;12.70;99.90
17986;DHT22;9118;48.122;11.546;2022-10-15T02:43:37;12.70;99.90
17986;DHT22;9118;48.122;11.546;2022-10-15T02:46:07;12.70;99.90
17986;DHT22;9118;48.122;11.546;2022-10-15T02:48:35;12.70;99.90
17986;DHT22;9118;48.122;11.546;2022-10-15T02:51:04;12.70;99.90
17986;DHT22;9118;48.122;11.546;2022-10-15T02:53:32;12.70;99.90
17986;DHT22;9118;48.122;11.546;2022-10-15T02:55:59;12.80;99.90
17986;DHT22;9118;48.122;11.546;2022-10-15T02:58:26;12.70;99.90
17986;DHT22;9118;48.122;11.546;2022-10-15T03:00:54;12.50;99.90
17986;DHT22;9118;48.122;11.546;2022-10-15T03:03:21;12.80;99.90
17986;DHT22;9118;48.122;11.546;2022-10-15T03:05:48;12.80;99.90
17986;DHT22;9118;48.122;11.546;2022-10-15T03:08:16;12.80;99.90
17986;DHT22;9118;48.122;11.546;2022-10-15T03:10:43;12.80;99.90
17986;DHT22;9118;48.122;11.546;2022-10-15T03:13:11;12.90;99.90
17986;DHT22;9118;48.122;11.546;2022-10-15T03:15:38;12.80;99.90
17986;DHT22;9118;48.122;11.546;2022-10-15T03:18:06;12.90;99.90
17986;DHT22;9118;48.122;11.546;2022-10-15T03:20:34;12.90;99.90
17986;DHT22;9118;48.122;11.546;2022-10-15T03:23:01;13.00;99.90
17986;DHT22;9118;48.122;11.546;2022-10-15T03:25:29;13.00;99.90
17986;DHT22;9118;48.122;11.546;2022-10-15T03:27:57;13.00;99.90
17986;DHT22;9118;48.122;11.546;2022-10-15T03:30:24;13.00;99.90
17986;DHT22;9118;48.122;11.546;2022-10-15T03:32:51;13.10;99.90
17986;DHT22;9118;48.122;11.546;2022-10-15T03:35:18;13.10;99.90
17986;DHT22;9118;48.122;11.546;2022-10-15T03:37:45;13.10;99.90
17986;DHT22;9118;48.122;11.546;2022-10-15T03:40:12;13.10;99.90
17986;DHT22;9118;48.122;11.546;2022-10-15T03:42:41;13.30;99.90
17986;DHT22;9118;48.122;11.546;2022-10-15T03:45:09;13.20;99.90
17986;DHT22;9118;48.122;11.546;2022-10-15T03:47:36;13.10;99.90
17986;DHT22;9118;48.122;11.546;2022-10-15T03:50:03;13.10;99.90
17986;DHT22;9118;48.122;11.546;2022-10-15T03:52:30;13.20;99.90
17986;DHT22;9118;48.122;11.546;2022-10-15T03:54:57;13.10;99.90
17986;DHT22;9118;48.122;11.546;2022-10-15T03:57:24;13.10;99.90
17986;DHT22;9118;48.122;11.546;2022-10-15T03:59:53;13.10;99.90
17986;DHT22;9118;48.122;11.546;2022-10-15T04:02:20;13.10;99.90
17986;DHT22;9118;48.122;11.546;2022-10-15T04:04:50;13.10;99.90
17986;DHT22;9118;48.122;11.546;2022-10-15T04:07:17;13.20;99.90
17986;DHT22;9118;48.122;11.546;2022-10-15T04:09:44;12.10;99.90
17986;DHT22;9118;48.122;11.546;2022-10-15T04:12:11;13.20;99.90
17986;DHT22;9118;48.122;11.546;2022-10-15T04:14:39;13.20;99.90
17986;DHT22;9118;48.122;11.546;2022-10-15T04:17:08;13.20;99.90
17986;DHT22;9118;48.122;11.546;2022-10-15T04:19:35;13.20;99.90
17986;DHT22;9118;48.122;11.546;2022-10-15T04:22:02;13.10;99.90
17986;DHT22;9118;48.122;11.546;2022-10-15T04:24:29;13.30;99.90
17986;DHT22;9118;48.122;11.546;2022-10-15T04:26:56;13.30;99.90
17986;DHT22;9118;48.122;11.546;2022-10-15T04:29:23;13.20;99.90
17986;DHT22;9118;48.122;11.546;2022-10-15T04:31:50;13.30;99.90
17986;DHT22;9118;48.122;11.546;2022-10-15T04:34:18;13.20;99.90
17986;DHT22;9118;48.122;11.546;2022-10-15T04:36:45;13.20;99.90
17986;DHT22;9118;48.122;11.546;2022-10-15T04:39:15;13.20;99.90
17986;DHT22;9118;48.122;11.546;2022-10-15T04:41:42;13.30;99.90
17986;DHT22;9118;48.122;11.546;2022-10-15T04:44:10;13.30;99.90
17986;DHT22;9118;48.122;11.546;2022-10-15T04:46:37;13.30;99.90
17986;DHT22;9118;48.122;11.546;2022-10-15T04:49:04;13.30;99.90
17986;DHT22;9118;48.122;11.546;2022-10-15T04:51:32;13.30;99.90
17986;DHT22;9118;48.122;11.546;2022-10-15T04:53:59;13.30;99.90
17986;DHT22;9118;48.122;11.546;2022-10-15T04:56:27;13.40;99.90
17986;DHT22;9118;48.122;11.546;2022-10-15T04:58:54;13.40;99.90
17986;DHT22;9118;48.122;11.546;2022-10-15T05:01:22;13.40;99.90
17986;DHT22;9118;48.122;11.546;2022-10-15T05:03:49;13.40;99.90
17986;DHT22;9118;48.122;11.546;2022-10-15T05:06:18;13.50;99.90
17986;DHT22;9118;48.122;11.546;2022-10-15T05:08:47;13.70;99.90
17986;DHT22;9118;48.122;11.546;2022-10-15T05:11:16;13.70;99.90
17986;DHT22;9118;48.122;11.546;2022-10-15T05:13:44;13.60;99.90
17986;DHT22;9118;48.122;11.546;2022-10-15T05:16:13;13.70;99.90
17986;DHT22;9118;48.122;11.546;2022-10-15T05:18:41;13.70;99.90
17986;DHT22;9118;48.122;11.546;2022-10-15T05:21:09;13.50;99.90
17986;DHT22;9118;48.122;11.546;2022-10-15T05:23:39;14.10;99.90
17986;DHT22;9118;48.122;11.546;2022-10-15T05:26:12;13.90;99.90
17986;DHT22;9118;48.122;11.546;2022-10-15T05:28:39;14.80;99.90
17986;DHT22;9118;48.122;11.546;2022-10-15T05:31:09;13.90;99.90
17986;DHT22;9118;48.122;11.546;2022-10-15T05:33:37;13.70;99.90
17986;DHT22;9118;48.122;11.546;2022-10-15T05:36:08;13.90;99.90
17986;DHT22;9118;48.122;11.546;2022-10-15T05:38:35;13.80;99.90
17986;DHT22;9118;48.122;11.546;2022-10-15T05:41:04;13.90;99.90
17986;DHT22;9118;48.122;11.546;2022-10-15T05:43:34;13.80;99.90
17986;DHT22;9118;48.122;11.546;2022-10-15T05:46:01;13.90;99.90
17986;DHT22;9118;48.122;11.546;2022-10-15T05:48:29;14.00;99.90
17986;DHT22;9118;48.122;11.546;2022-10-15T05:51:00;13.90;99.90
17986;DHT22;9118;48.122;11.546;2022-10-15T05:53:27;14.00;99.90
17986;DHT22;9118;48.122;11.546;2022-10-15T05:55:54;13.60;99.90
17986;DHT22;9118;48.122;11.546;2022-10-15T05:58:23;13.90;99.90
17986;DHT22;9118;48.122;11.546;2022-10-15T06:00:55;13.90;99.90
17986;DHT22;9118;48.122;11.546;2022-10-15T06:03:24;14.10;99.90
17986;DHT22;9118;48.122;11.546;2022-10-15T06:05:53;14.00;99.90
17986;DHT22;9118;48.122;11.546;2022-10-15T06:08:21;14.10;99.90
17986;DHT22;9118;48.122;11.546;2022-10-15T06:10:48;13.70;99.90
17986;DHT22;9118;48.122;11.546;2022-10-15T06:13:16;14.20;99.90
17986;DHT22;9118;48.122;11.546;2022-10-15T06:15:44;14.40;99.90
17986;DHT22;9118;48.122;11.546;2022-10-15T06:18:13;14.00;99.90
17986;DHT22;9118;48.122;11.546;2022-10-15T06:20:41;14.00;99.90
17986;DHT22;9118;48.122;11.546;2022-10-15T06:23:09;14.00;99.90
17986;DHT22;9118;48.122;11.546;2022-10-15T06:25:37;14.20;99.90
17986;DHT22;9118;48.122;11.546;2022-10-15T06:28:05;14.00;99.90
17986;DHT22;9118;48.122;11.546;2022-10-15T06:30:51;14.10;99.90
17986;DHT22;9118;48.122;11.546;2022-10-15T06:33:20;15.10;99.90
17986;DHT22;9118;48.122;11.546;2022-10-15T06:35:47;14.00;99.90
17986;DHT22;9118;48.122;11.546;2022-10-15T06:38:14;14.10;99.90
17986;DHT22;9118;48.122;11.546;2022-10-15T06:40:41;14.00;99.90
17986;DHT22;9118;48.122;11.546;2022-10-15T06:43:10;14.10;99.90
17986;DHT22;9118;48.122;11.546;2022-10-15T06:45:39;14.00;99.90
17986;DHT22;9118;48.122;11.546;2022-10-15T06:48:07;14.80;99.90
17986;DHT22;9118;48.122;11.546;2022-10-15T06:50:46;14.20;99.90
17986;DHT22;9118;48.122;11.546;2022-10-15T06:53:16;14.30;99.90
17986;DHT22;9118;48.122;11.546;2022-10-15T06:55:43;14.30;99.90
17986;DHT22;9118;48.122;11.546;2022-10-15T06:58:10;14.20;99.90
17986;DHT22;9118;48.122;11.546;2022-10-15T07:00:37;14.30;99.90
17986;DHT22;9118;48.122;11.546;2022-10-15T07:03:05;14.30;99.90
17986;DHT22;9118;48.122;11.546;2022-10-15T07:05:35;14.30;99.90
17986;DHT22;9118;48.122;11.546;2022-10-15T07:08:04;14.40;99.90
17986;DHT22;9118;48.122;11.546;2022-10-15T07:10:31;14.30;99.90
17986;DHT22;9118;48.122;11.546;2022-10-15T07:12:58;14.40;99.90
17986;DHT22;9118;48.122;11.546;2022-10-15T07:15:25;14.70;99.90
17986;DHT22;9118;48.122;11.546;2022-10-15T07:17:54;14.50;99.90
17986;DHT22;9118;48.122;11.546;2022-10-15T07:20:26;14.50;99.90
17986;DHT22;9118;48.122;11.546;2022-10-15T07:22:55;14.50;99.90
17986;DHT22;9118;48.122;11.546;2022-10-15T07:25:24;14.50;99.90
17986;DHT22;9118;48.122;11.546;2022-10-15T07:27:55;14.70;99.90
17986;DHT22;9118;48.122;11.546;2022-10-15T07:30:23;14.60;99.90
17986;DHT22;9118;48.122;11.546;2022-10-15T07:33:25;14.70;99.90
17986;DHT22;9118;48.122;11.546;2022-10-15T07:35:52;14.50;99.90
17986;DHT22;9118;48.122;11.546;2022-10-15T07:38:18;14.70;99.90
17986;DHT22;9118;48.122;11.546;2022-10-15T07:40:47;14.00;99.90
17986;DHT22;9118;48.122;11.546;2022-10-15T07:43:18;14.60;99.90
17986;DHT22;9118;48.122;11.546;2022-10-15T07:45:46;14.70;99.90
17986;DHT22;9118;48.122;11.546;2022-10-15T07:48:14;14.70;99.90
17986;DHT22;9118;48.122;11.546;2022-10-15T07:50:41;14.60;99.90
17986;DHT22;9118;48.122;11.546;2022-10-15T07:53:11;14.80;99.90
17986;DHT22;9118;48.122;11.546;2022-10-15T07:55:38;14.50;99.90
17986;DHT22;9118;48.122;11.546;2022-10-15T07:58:06;14.20;99.90
17986;DHT22;9118;48.122;11.546;2022-10-15T08:00:33;14.70;99.90
17986;DHT22;9118;48.122;11.546;2022-10-15T08:03:00;14.70;99.90
17986;DHT22;9118;48.122;11.546;2022-10-15T08:05:27;14.70;99.90
17986;DHT22;9118;48.122;11.546;2022-10-15T08:07:54;14.60;99.90
17986;DHT22;9118;48.122;11.546;2022-10-15T08:10:21;14.70;99.90
17986;DHT22;9118;48.122;11.546;2022-10-15T08:13:06;14.60;99.90
17986;DHT22;9118;48.122;11.546;2022-10-15T08:15:33;14.70;99.90
17986;DHT22;9118;48.122;11.546;2022-10-15T08:18:00;15.30;99.90
17986;DHT22;9118;48.122;11.546;2022-10-15T08:20:27;14.80;99.90
17986;DHT22;9118;48.122;11.546;2022-10-15T08:22:54;14.70;99.90
17986;DHT22;9118;48.122;11.546;2022-10-15T08:25:21;15.10;99.90
17986;DHT22;9118;48.122;11.546;2022-10-15T08:27:48;15.60;99.90
17986;DHT22;9118;48.122;11.546;2022-10-15T08:30:16;14.80;99.90
17986;DHT22;9118;48.122;11.546;2022-10-15T08:32:43;15.00;99.90
17986;DHT22;9118;48.122;11.546;2022-10-15T08:35:11;14.80;99.90
17986;DHT22;9118;48.122;11.546;2022-10-15T08:37:38;15.30;99.90
17986;DHT22;9118;48.122;11.546;2022-10-15T08:40:06;14.90;99.90
17986;DHT22;9118;48.122;11.546;2022-10-15T08:42:36;14.90;99.90
17986;DHT22;9118;48.122;11.546;2022-10-15T08:45:11;14.90;99.90
17986;DHT22;9118;48.122;11.546;2022-10-15T08:47:44;14.90;99.90
17986;DHT22;9118;48.122;11.546;2022-10-15T08:50:17;14.80;99.90
17986;DHT22;9118;48.122;11.546;2022-10-15T08:52:48;13.60;99.90
17986;DHT22;9118;48.122;11.546;2022-10-15T08:55:17;14.80;99.90
17986;DHT22;9118;48.122;11.546;2022-10-15T08:57:47;14.70;99.90
17986;DHT22;9118;48.122;11.546;2022-10-15T09:00:18;14.80;99.90
17986;DHT22;9118;48.122;11.546;2022-10-15T09:02:53;14.70;99.90
17986;DHT22;9118;48.122;11.546;2022-10-15T09:05:29;14.70;99.90
17986;DHT22;9118;48.122;11.546;2022-10-15T09:08:06;14.80;99.90
17986;DHT22;9118;48.122;11.546;2022-10-15T09:10:43;14.80;99.90
17986;DHT22;9118;48.122;11.546;2022-10-15T09:13:14;14.80;99.90
17986;DHT22;9118;48.122;11.546;2022-10-15T09:15:47;15.00;99.90
17986;DHT22;9118;48.122;11.546;2022-10-15T09:18:21;15.00;99.90
17986;DHT22;9118;48.122;11.546;2022-10-15T09:20:49;15.20;99.90
17986;DHT22;9118;48.122;11.546;2022-10-15T09:23:19;15.20;99.90
17986;DHT22;9118;48.122;11.546;2022-10-15T09:25:50;15.50;99.90
17986;DHT22;9118;48.122;11.546;2022-10-15T09:28:21;15.40;99.90
17986;DHT22;9118;48.122;11.546;2022-10-15T09:30:53;15.50;99.90
17986;DHT22;9118;48.122;11.546;2022-10-15T09:33:32;15.70;99.90
17986;DHT22;9118;48.122;11.546;2022-10-15T09:36:10;15.80;99.90
17986;DHT22;9118;48.122;11.546;2022-10-15T09:38:46;15.80;99.90
17986;DHT22;9118;48.122;11.546;2022-10-15T09:41:22;16.30;99.90
17986;DHT22;9118;48.122;11.546;2022-10-15T09:43:51;16.00;99.90
17986;DHT22;9118;48.122;11.546;2022-10-15T09:46:21;16.20;99.90
17986;DHT22;9118;48.122;11.546;2022-10-15T09:48:54;16.20;99.90
17986;DHT22;9118;48.122;11.546;2022-10-15T09:51:28;16.30;99.90
17986;DHT22;9118;48.122;11.546;2022-10-15T09:54:02;16.30;99.90
17986;DHT22;9118;48.122;11.546;2022-10-15T09:56:34;16.30;99.90
17986;DHT22;9118;48.122;11.546;2022-10-15T09:59:02;16.40;99.90
17986;DHT22;9118;48.122;11.546;2022-10-15T10:01:31;16.50;99.90
17986;DHT22;9118;48.122;11.546;2022-10-15T10:04:12;16.60;99.90
17986;DHT22;9118;48.122;11.546;2022-10-15T10:06:44;16.50;99.90
17986;DHT22;9118;48.122;11.546;2022-10-15T10:09:16;16.50;99.90
17986;DHT22;9118;48.122;11.546;2022-10-15T10:11:47;16.80;99.90
17986;DHT22;9118;48.122;11.546;2022-10-15T10:14:22;16.70;99.90
17986;DHT22;9118;48.122;11.546;2022-10-15T10:17:07;16.70;99.90
17986;DHT22;9118;48.122;11.546;2022-10-15T10:19:41;16.70;99.90
17986;DHT22;9118;48.122;11.546;2022-10-15T10:22:14;17.10;99.90
17986;DHT22;9118;48.122;11.546;2022-10-15T10:24:41;16.70;99.90
17986;DHT22;9118;48.122;11.546;2022-10-15T10:27:18;16.80;99.90
17986;DHT22;9118;48.122;11.546;2022-10-15T10:29:51;16.90;99.90
17986;DHT22;9118;48.122;11.546;2022-10-15T10:32:21;17.10;99.90
17986;DHT22;9118;48.122;11.546;2022-10-15T10:34:50;17.30;99.90
17986;DHT22;9118;48.122;11.546;2022-10-15T10:37:18;18.50;99.90
17986;DHT22;9118;48.122;11.546;2022-10-15T10:39:51;17.60;99.90
17986;DHT22;9118;48.122;11.546;2022-10-15T10:42:30;17.70;99.90
17986;DHT22;9118;48.122;11.546;2022-10-15T10:45:17;17.70;99.90
17986;DHT22;9118;48.122;11.546;2022-10-15T10:47:45;17.80;99.90
17986;DHT22;9118;48.122;11.546;2022-10-15T10:50:29;18.00;99.90
17986;DHT22;9118;48.122;11.546;2022-10-15T10:52:57;18.30;99.90
17986;DHT22;9118;48.122;11.546;2022-10-15T10:55:31;18.10;99.90
17986;DHT22;9118;48.122;11.546;2022-10-15T10:58:00;18.10;99.90
17986;DHT22;9118;48.122;11.546;2022-10-15T11:00:41;18.10;99.90
17986;DHT22;9118;48.122;11.546;2022-10-15T11:03:19;18.00;99.90
17986;DHT22;9118;48.122;11.546;2022-10-15T11:05:49;18.00;99.90
17986;DHT22;9118;48.122;11.546;2022-10-15T11:08:23;17.80;99.90
17986;DHT22;9118;48.122;11.546;2022-10-15T11:10:58;18.00;99.90
17986;DHT22;9118;48.122;11.546;2022-10-15T11:13:41;18.00;99.90
17986;DHT22;9118;48.122;11.546;2022-10-15T11:16:14;18.10;99.90
17986;DHT22;9118;48.122;11.546;2022-10-15T11:18:55;18.60;99.90
17986;DHT22;9118;48.122;11.546;2022-10-15T11:21:36;18.20;99.90
17986;DHT22;9118;48.122;11.546;2022-10-15T11:24:11;18.40;99.90
17986;DHT22;9118;48.122;11.546;2022-10-15T11:26:52;18.30;99.90
17986;DHT22;9118;48.122;11.546;2022-10-15T11:29:32;18.20;99.90
17986;DHT22;9118;48.122;11.546;2022-10-15T11:32:12;18.20;99.90
17986;DHT22;9118;48.122;11.546;2022-10-15T11:34:49;18.40;99.90
17986;DHT22;9118;48.122;11.546;2022-10-15T11:37:29;18.40;99.90
17986;DHT22;9118;48.122;11.546;2022-10-15T11:40:11;18.30;99.90
17986;DHT22;9118;48.122;11.546;2022-10-15T11:42:45;18.30;99.90
17986;DHT22;9118;48.122;11.546;2022-10-15T11:45:32;18.30;99.90
17986;DHT22;9118;48.122;11.546;2022-10-15T11:48:08;18.50;99.90
17986;DHT22;9118;48.122;11.546;2022-10-15T11:50:40;18.50;99.90
17986;DHT22;9118;48.122;11.546;2022-10-15T11:53:28;18.50;99.90
17986;DHT22;9118;48.122;11.546;2022-10-15T11:56:02;18.80;99.90
17986;DHT22;9118;48.122;11.546;2022-10-15T11:58:33;18.80;99.90
17986;DHT22;9118;48.122;11.546;2022-10-15T12:01:05;19.00;99.90
17986;DHT22;9118;48.122;11.546;2022-10-15T12:03:38;19.20;99.90
17986;DHT22;9118;48.122;11.546;2022-10-15T12:06:09;19.00;99.90
17986;DHT22;9118;48.122;11.546;2022-10-15T12:08:41;19.00;99.90
17986;DHT22;9118;48.122;11.546;2022-10-15T12:11:20;19.10;99.90
17986;DHT22;9118;48.122;11.546;2022-10-15T12:13:53;19.10;99.90
17986;DHT22;9118;48.122;11.546;2022-10-15T12:16:27;18.90;99.90
17986;DHT22;9118;48.122;11.546;2022-10-15T12:19:03;19.10;99.90
17986;DHT22;9118;48.122;11.546;2022-10-15T12:21:36;19.10;99.90
17986;DHT22;9118;48.122;11.546;2022-10-15T12:27:18;19.30;99.90
17986;DHT22;9118;48.122;11.546;2022-10-15T12:29:48;19.30;99.90
17986;DHT22;9118;48.122;11.546;2022-10-15T12:32:23;19.30;99.90
17986;DHT22;9118;48.122;11.546;2022-10-15T12:34:55;19.30;99.90
17986;DHT22;9118;48.122;11.546;2022-10-15T12:37:24;19.20;99.90
17986;DHT22;9118;48.122;11.546;2022-10-15T12:39:59;19.30;99.90
17986;DHT22;9118;48.122;11.546;2022-10-15T12:42:29;19.30;99.90
17986;DHT22;9118;48.122;11.546;2022-10-15T12:44:59;19.10;99.90
17986;DHT22;9118;48.122;11.546;2022-10-15T12:47:47;19.00;99.90
17986;DHT22;9118;48.122;11.546;2022-10-15T12:50:20;18.80;99.90
17986;DHT22;9118;48.122;11.546;2022-10-15T12:52:56;18.60;99.90
17986;DHT22;9118;48.122;11.546;2022-10-15T12:55:28;18.40;99.90
17986;DHT22;9118;48.122;11.546;2022-10-15T12:57:58;18.40;99.90
17986;DHT22;9118;48.122;11.546;2022-10-15T13:00:39;18.30;99.90
17986;DHT22;9118;48.122;11.546;2022-10-15T13:03:26;17.80;99.90
17986;DHT22;9118;48.122;11.546;2022-10-15T13:06:12;18.30;99.90
17986;DHT22;9118;48.122;11.546;2022-10-15T13:08:43;18.50;99.90
17986;DHT22;9118;48.122;11.546;2022-10-15T13:11:18;18.60;99.90
17986;DHT22;9118;48.122;11.546;2022-10-15T13:13:48;18.50;99.90
17986;DHT22;9118;48.122;11.546;2022-10-15T13:16:15;18.60;99.90
17986;DHT22;9118;48.122;11.546;2022-10-15T13:18:48;18.70;99.90
17986;DHT22;9118;48.122;11.546;2022-10-15T13:21:15;19.00;99.90
17986;DHT22;9118;48.122;11.546;2022-10-15T13:23:47;18.80;99.90
17986;DHT22;9118;48.122;11.546;2022-10-15T13:26:21;18.80;99.90
17986;DHT22;9118;48.122;11.546;2022-10-15T13:28:50;18.70;99.90
17986;DHT22;9118;48.122;11.546;2022-10-15T13:31:22;18.80;99.90
17986;DHT22;9118;48.122;11.546;2022-10-15T13:33:51;18.60;99.90
17986;DHT22;9118;48.122;11.546;2022-10-15T13:36:22;18.70;99.90
17986;DHT22;9118;48.122;11.546;2022-10-15T13:38:56;18.70;99.90
17986;DHT22;9118;48.122;11.546;2022-10-15T13:41:37;18.80;99.90
17986;DHT22;9118;48.122;11.546;2022-10-15T13:44:05;19.00;99.90
17986;DHT22;9118;48.122;11.546;2022-10-15T13:46:35;19.00;99.90
17986;DHT22;9118;48.122;11.546;2022-10-15T13:49:09;19.20;99.90
17986;DHT22;9118;48.122;11.546;2022-10-15T13:51:39;19.20;99.90
17986;DHT22;9118;48.122;11.546;2022-10-15T13:54:09;19.20;99.90
17986;DHT22;9118;48.122;11.546;2022-10-15T13:56:41;19.20;99.90
17986;DHT22;9118;48.122;11.546;2022-10-15T13:59:14;19.20;99.90
17986;DHT22;9118;48.122;11.546;2022-10-15T14:01:45;19.10;99.90
17986;DHT22;9118;48.122;11.546;2022-10-15T14:04:14;19.10;99.90
17986;DHT22;9118;48.122;11.546;2022-10-15T14:06:51;19.10;99.90
17986;DHT22;9118;48.122;11.546;2022-10-15T14:09:22;19.40;99.90
17986;DHT22;9118;48.122;11.546;2022-10-15T14:11:53;19.40;99.90
17986;DHT22;9118;48.122;11.546;2022-10-15T14:14:29;19.40;99.90
17986;DHT22;9118;48.122;11.546;2022-10-15T14:16:59;19.40;99.90
17986;DHT22;9118;48.122;11.546;2022-10-15T14:19:28;19.20;99.90
17986;DHT22;9118;48.122;11.546;2022-10-15T14:21:56;19.00;99.90
17986;DHT22;9118;48.122;11.546;2022-10-15T14:24:30;19.00;99.90
17986;DHT22;9118;48.122;11.546;2022-10-15T14:27:05;19.00;99.90
17986;DHT22;9118;48.122;11.546;2022-10-15T14:29:38;18.80;99.90
17986;DHT22;9118;48.122;11.546;2022-10-15T14:32:20;18.80;99.90
17986;DHT22;9118;48.122;11.546;2022-10-15T14:34:48;18.80;99.90
17986;DHT22;9118;48.122;11.546;2022-10-15T14:37:36;19.20;99.90
17986;DHT22;9118;48.122;11.546;2022-10-15T14:40:19;19.00;99.90
17986;DHT22;9118;48.122;11.546;2022-10-15T14:43:00;19.00;99.90
17986;DHT22;9118;48.122;11.546;2022-10-15T14:45:29;19.20;99.90
17986;DHT22;9118;48.122;11.546;2022-10-15T14:47:58;19.10;99.90
17986;DHT22;9118;48.122;11.546;2022-10-15T14:50:29;18.40;99.90
17986;DHT22;9118;48.122;11.546;2022-10-15T14:52:58;19.10;99.90
17986;DHT22;9118;48.122;11.546;2022-10-15T14:55:28;19.00;99.90
17986;DHT22;9118;48.122;11.546;2022-10-15T14:58:01;19.00;99.90
17986;DHT22;9118;48.122;11.546;2022-10-15T15:00:38;19.00;99.90
17986;DHT22;9118;48.122;11.546;2022-10-15T15:03:09;19.00;99.90
17986;DHT22;9118;48.122;11.546;2022-10-15T15:05:45;19.00;99.90
17986;DHT22;9118;48.122;11.546;2022-10-15T15:08:13;19.00;99.90
17986;DHT22;9118;48.122;11.546;2022-10-15T15:10:40;18.90;99.90
17986;DHT22;9118;48.122;11.546;2022-10-15T15:13:11;19.10;99.90
17986;DHT22;9118;48.122;11.546;2022-10-15T15:15:41;18.60;99.90
17986;DHT22;9118;48.122;11.546;2022-10-15T15:18:08;18.20;99.90
17986;DHT22;9118;48.122;11.546;2022-10-15T15:20:36;18.40;99.90
17986;DHT22;9118;48.122;11.546;2022-10-15T15:23:03;18.30;99.90
17986;DHT22;9118;48.122;11.546;2022-10-15T15:25:32;18.30;99.90
17986;DHT22;9118;48.122;11.546;2022-10-15T15:28:00;18.20;99.90
17986;DHT22;9118;48.122;11.546;2022-10-15T15:30:30;18.30;99.90
17986;DHT22;9118;48.122;11.546;2022-10-15T15:32:58;18.30;99.90
17986;DHT22;9118;48.122;11.546;2022-10-15T15:35:31;18.30;99.90
17986;DHT22;9118;48.122;11.546;2022-10-15T15:38:02;18.40;99.90
17986;DHT22;9118;48.122;11.546;2022-10-15T15:40:32;18.40;99.90
17986;DHT22;9118;48.122;11.546;2022-10-15T15:42:59;18.50;99.90
17986;DHT22;9118;48.122;11.546;2022-10-15T15:45:27;18.30;99.90
17986;DHT22;9118;48.122;11.546;2022-10-15T15:47:55;18.20;99.90
17986;DHT22;9118;48.122;11.546;2022-10-15T15:50:26;18.20;99.90
17986;DHT22;9118;48.122;11.546;2022-10-15T15:52:53;18.40;99.90
17986;DHT22;9118;48.122;11.546;2022-10-15T15:55:20;18.00;99.90
17986;DHT22;9118;48.122;11.546;2022-10-15T15:57:47;18.00;99.90
17986;DHT22;9118;48.122;11.546;2022-10-15T16:00:15;18.50;99.90
17986;DHT22;9118;48.122;11.546;2022-10-15T16:02:43;17.90;99.90